sensor_id;sensor_type;location;lat;lon;timestamp;temperature;humidity
29731;DHT22;16639;51.488;0.152;2023-05-07T00:00:23;14.30;99.90
29731;DHT22;16639;51.488;0.152;2023-05-07T00:02:51;14.60;99.90
29731;DHT22;16639;51.488;0.152;2023-05-07T00:05:19;14.50;99.90
29731;DHT22;16639;51.488;0.152;2023-05-07T00:07:47;14.50;99.90
29731;DHT22;16639;51.488;0.152;2023-05-07T00:10:15;14.50;99.90
29731;DHT22;16639;51.488;0.152;2023-05-07T00:12:42;14.50;99.90
29731;DHT22;16639;51.488;0.152;2023-05-07T00:15:10;14.50;99.90
29731;DHT22;16639;51.488;0.152;2023-05-07T00:17:38;14.50;99.90
29731;DHT22;16639;51.488;0.152;2023-05-07T00:20:06;14.40;99.90
29731;DHT22;16639;51.488;0.152;2023-05-07T00:22:34;14.40;99.90
29731;DHT22;16639;51.488;0.152;2023-05-07T00:25:02;14.40;99.90
29731;DHT22;16639;51.488;0.152;2023-05-07T00:27:30;14.40;99.90
29731;DHT22;16639;51.488;0.152;2023-05-07T00:29:58;14.40;99.90
29731;DHT22;16639;51.488;0.152;2023-05-07T00:32:25;14.40;99.90
29731;DHT22;16639;51.488;0.152;2023-05-07T00:34:52;14.40;99.90
29731;DHT22;16639;51.488;0.152;2023-05-07T00:37:20;14.40;99.90
29731;DHT22;16639;51.488;0.152;2023-05-07T00:39:47;14.40;99.90
29731;DHT22;16639;51.488;0.152;2023-05-07T00:42:15;14.30;99.90
29731;DHT22;16639;51.488;0.152;2023-05-07T00:44:43;14.30;99.90
29731;DHT22;16639;51.488;0.152;2023-05-07T00:47:11;14.30;99.90
29731;DHT22;16639;51.488;0.152;2023-05-07T00:49:42;14.30;99.90
29731;DHT22;16639;51.488;0.152;2023-05-07T00:52:11;14.30;99.90
29731;DHT22;16639;51.488;0.152;2023-05-07T00:54:41;14.50;99.90
29731;DHT22;16639;51.488;0.152;2023-05-07T00:57:09;14.30;99.90
29731;DHT22;16639;51.488;0.152;2023-05-07T00:59:38;14.30;99.90
29731;DHT22;16639;51.488;0.152;2023-05-07T01:02:07;14.30;99.90
29731;DHT22;16639;51.488;0.152;2023-05-07T01:04:35;14.30;99.90
29731;DHT22;16639;51.488;0.152;2023-05-07T01:07:04;14.30;99.90
29731;DHT22;16639;51.488;0.152;2023-05-07T01:09:32;14.30;99.90
29731;DHT22;16639;51.488;0.152;2023-05-07T01:12:03;14.30;99.90
29731;DHT22;16639;51.488;0.152;2023-05-07T01:14:31;14.30;99.90
29731;DHT22;16639;51.488;0.152;2023-05-07T01:17:00;14.20;99.90
29731;DHT22;16639;51.488;0.152;2023-05-07T01:19:29;14.20;99.90
29731;DHT22;16639;51.488;0.152;2023-05-07T01:22:03;14.20;99.90
29731;DHT22;16639;51.488;0.152;2023-05-07T01:24:35;14.20;99.90
29731;DHT22;16639;51.488;0.152;2023-05-07T01:27:03;14.10;99.90
29731;DHT22;16639;51.488;0.152;2023-05-07T01:29:31;14.20;99.90
29731;DHT22;16639;51.488;0.152;2023-05-07T01:32:00;14.10;99.90
29731;DHT22;16639;51.488;0.152;2023-05-07T01:34:31;14.10;99.90
29731;DHT22;16639;51.488;0.152;2023-05-07T01:37:00;14.10;99.90
29731;DHT22;16639;51.488;0.152;2023-05-07T01:39:29;14.10;99.90
29731;DHT22;16639;51.488;0.152;2023-05-07T01:41:57;14.10;99.90
29731;DHT22;16639;51.488;0.152;2023-05-07T01:44:26;14.20;99.90
29731;DHT22;16639;51.488;0.152;2023-05-07T01:46:54;14.20;99.90
29731;DHT22;16639;51.488;0.152;2023-05-07T01:49:22;14.10;99.90
29731;DHT22;16639;51.488;0.152;2023-05-07T01:51:49;14.10;99.90
29731;DHT22;16639;51.488;0.152;2023-05-07T01:54:17;14.10;99.90
29731;DHT22;16639;51.488;0.152;2023-05-07T01:56:45;14.10;99.90
29731;DHT22;16639;51.488;0.152;2023-05-07T01:59:15;14.10;99.90
29731;DHT22;16639;51.488;0.152;2023-05-07T02:01:42;14.10;99.90
29731;DHT22;16639;51.488;0.152;2023-05-07T02:04:10;14.10;99.90
29731;DHT22;16639;51.488;0.152;2023-05-07T02:06:37;14.10;99.90
29731;DHT22;16639;51.488;0.152;2023-05-07T02:09:05;14.10;99.90
29731;DHT22;16639;51.488;0.152;2023-05-07T02:11:32;14.00;99.90
29731;DHT22;16639;51.488;0.152;2023-05-07T02:14:00;14.00;99.90
29731;DHT22;16639;51.488;0.152;2023-05-07T02:16:27;14.00;99.90
29731;DHT22;16639;51.488;0.152;2023-05-07T02:18:55;14.00;99.90
29731;DHT22;16639;51.488;0.152;2023-05-07T02:21:22;14.00;99.90
29731;DHT22;16639;51.488;0.152;2023-05-07T02:23:49;14.00;99.90
29731;DHT22;16639;51.488;0.152;2023-05-07T02:26:18;14.00;99.90
29731;DHT22;16639;51.488;0.152;2023-05-07T02:28:45;14.00;99.90
29731;DHT22;16639;51.488;0.152;2023-05-07T02:31:13;14.00;99.90
29731;DHT22;16639;51.488;0.152;2023-05-07T02:33:40;14.00;99.90
29731;DHT22;16639;51.488;0.152;2023-05-07T02:36:09;13.90;99.90
29731;DHT22;16639;51.488;0.152;2023-05-07T02:38:37;13.90;99.90
29731;DHT22;16639;51.488;0.152;2023-05-07T02:41:04;13.90;99.90
29731;DHT22;16639;51.488;0.152;2023-05-07T02:43:32;13.80;99.90
29731;DHT22;16639;51.488;0.152;2023-05-07T02:46:07;13.80;99.90
29731;DHT22;16639;51.488;0.152;2023-05-07T02:48:35;13.90;99.90
29731;DHT22;16639;51.488;0.152;2023-05-07T02:51:03;14.00;99.90
29731;DHT22;16639;51.488;0.152;2023-05-07T02:53:31;13.90;99.90
29731;DHT22;16639;51.488;0.152;2023-05-07T02:55:59;13.90;99.90
29731;DHT22;16639;51.488;0.152;2023-05-07T02:58:27;13.90;99.90
29731;DHT22;16639;51.488;0.152;2023-05-07T03:00:55;13.90;99.90
29731;DHT22;16639;51.488;0.152;2023-05-07T03:03:22;13.90;99.90
29731;DHT22;16639;51.488;0.152;2023-05-07T03:05:50;13.90;99.90
29731;DHT22;16639;51.488;0.152;2023-05-07T03:08:17;13.90;99.90
29731;DHT22;16639;51.488;0.152;2023-05-07T03:10:45;13.80;99.90
29731;DHT22;16639;51.488;0.152;2023-05-07T03:13:12;13.90;99.90
29731;DHT22;16639;51.488;0.152;2023-05-07T03:15:39;13.90;99.90
29731;DHT22;16639;51.488;0.152;2023-05-07T03:18:07;13.80;99.90
29731;DHT22;16639;51.488;0.152;2023-05-07T03:20:35;13.90;99.90
29731;DHT22;16639;51.488;0.152;2023-05-07T03:23:03;13.80;99.90
29731;DHT22;16639;51.488;0.152;2023-05-07T03:25:32;13.80;99.90
29731;DHT22;16639;51.488;0.152;2023-05-07T03:27:59;13.70;99.90
29731;DHT22;16639;51.488;0.152;2023-05-07T03:30:27;13.80;99.90
29731;DHT22;16639;51.488;0.152;2023-05-07T03:32:54;13.70;99.90
29731;DHT22;16639;51.488;0.152;2023-05-07T03:35:22;13.70;99.90
29731;DHT22;16639;51.488;0.152;2023-05-07T03:37:49;13.70;99.90
29731;DHT22;16639;51.488;0.152;2023-05-07T03:40:17;13.70;99.90
29731;DHT22;16639;51.488;0.152;2023-05-07T03:42:45;13.70;99.90
29731;DHT22;16639;51.488;0.152;2023-05-07T03:45:12;13.70;99.90
29731;DHT22;16639;51.488;0.152;2023-05-07T03:47:40;13.70;99.90
29731;DHT22;16639;51.488;0.152;2023-05-07T03:50:07;13.70;99.90
29731;DHT22;16639;51.488;0.152;2023-05-07T03:52:35;13.70;99.90
29731;DHT22;16639;51.488;0.152;2023-05-07T03:55:03;13.70;99.90
29731;DHT22;16639;51.488;0.152;2023-05-07T03:57:31;13.70;99.90
29731;DHT22;16639;51.488;0.152;2023-05-07T03:59:58;13.70;99.90
29731;DHT22;16639;51.488;0.152;2023-05-07T04:02:26;13.60;99.90
29731;DHT22;16639;51.488;0.152;2023-05-07T04:04:53;13.70;99.90
29731;DHT22;16639;51.488;0.152;2023-05-07T04:07:22;13.70;99.90
29731;DHT22;16639;51.488;0.152;2023-05-07T04:09:49;13.70;99.90
29731;DHT22;16639;51.488;0.152;2023-05-07T04:12:17;13.70;99.90
29731;DHT22;16639;51.488;0.152;2023-05-07T04:14:44;13.70;99.90
29731;DHT22;16639;51.488;0.152;2023-05-07T04:17:12;13.70;99.90
29731;DHT22;16639;51.488;0.152;2023-05-07T04:19:39;13.60;99.90
29731;DHT22;16639;51.488;0.152;2023-05-07T04:22:06;13.70;99.90
29731;DHT22;16639;51.488;0.152;2023-05-07T04:24:34;13.70;99.90
29731;DHT22;16639;51.488;0.152;2023-05-07T04:27:01;13.70;99.90
29731;DHT22;16639;51.488;0.152;2023-05-07T04:29:29;13.70;99.90
29731;DHT22;16639;51.488;0.152;2023-05-07T04:31:56;13.70;99.90
29731;DHT22;16639;51.488;0.152;2023-05-07T04:34:25;13.70;99.90
29731;DHT22;16639;51.488;0.152;2023-05-07T04:36:53;13.70;99.90
29731;DHT22;16639;51.488;0.152;2023-05-07T04:39:20;13.70;99.90
29731;DHT22;16639;51.488;0.152;2023-05-07T04:41:48;13.60;99.90
29731;DHT22;16639;51.488;0.152;2023-05-07T04:44:15;13.70;99.90
29731;DHT22;16639;51.488;0.152;2023-05-07T04:46:43;13.70;99.90
29731;DHT22;16639;51.488;0.152;2023-05-07T04:49:11;13.70;99.90
29731;DHT22;16639;51.488;0.152;2023-05-07T04:51:38;13.90;99.90
29731;DHT22;16639;51.488;0.152;2023-05-07T04:54:06;13.70;99.90
29731;DHT22;16639;51.488;0.152;2023-05-07T04:56:33;13.70;99.90
29731;DHT22;16639;51.488;0.152;2023-05-07T04:59:02;13.70;99.90
29731;DHT22;16639;51.488;0.152;2023-05-07T05:01:29;13.70;99.90
29731;DHT22;16639;51.488;0.152;2023-05-07T05:03:56;13.70;99.90
29731;DHT22;16639;51.488;0.152;2023-05-07T05:06:24;13.80;99.90
29731;DHT22;16639;51.488;0.152;2023-05-07T05:08:51;13.70;99.90
29731;DHT22;16639;51.488;0.152;2023-05-07T05:11:19;13.70;99.90
29731;DHT22;16639;51.488;0.152;2023-05-07T05:13:46;13.70;99.90
29731;DHT22;16639;51.488;0.152;2023-05-07T05:16:16;13.80;99.90
29731;DHT22;16639;51.488;0.152;2023-05-07T05:18:43;13.80;99.90
29731;DHT22;16639;51.488;0.152;2023-05-07T05:21:11;13.70;99.90
29731;DHT22;16639;51.488;0.152;2023-05-07T05:23:38;13.70;99.90
29731;DHT22;16639;51.488;0.152;2023-05-07T05:26:06;13.40;99.90
29731;DHT22;16639;51.488;0.152;2023-05-07T05:28:33;13.80;99.90
29731;DHT22;16639;51.488;0.152;2023-05-07T05:31:00;13.80;99.90
29731;DHT22;16639;51.488;0.152;2023-05-07T05:33:28;13.80;99.90
29731;DHT22;16639;51.488;0.152;2023-05-07T05:35:56;13.80;99.90
29731;DHT22;16639;51.488;0.152;2023-05-07T05:38:23;13.80;99.90
29731;DHT22;16639;51.488;0.152;2023-05-07T05:40:50;13.90;99.90
29731;DHT22;16639;51.488;0.152;2023-05-07T05:43:19;13.90;99.90
29731;DHT22;16639;51.488;0.152;2023-05-07T05:45:46;13.90;99.90
29731;DHT22;16639;51.488;0.152;2023-05-07T05:48:14;13.90;99.90
29731;DHT22;16639;51.488;0.152;2023-05-07T05:50:42;14.10;99.90
29731;DHT22;16639;51.488;0.152;2023-05-07T05:53:09;13.90;99.90
29731;DHT22;16639;51.488;0.152;2023-05-07T05:55:37;13.90;99.90
29731;DHT22;16639;51.488;0.152;2023-05-07T05:58:04;13.90;99.90
29731;DHT22;16639;51.488;0.152;2023-05-07T06:00:32;13.90;99.90
29731;DHT22;16639;51.488;0.152;2023-05-07T06:02:59;14.00;99.90
29731;DHT22;16639;51.488;0.152;2023-05-07T06:05:27;14.00;99.90
29731;DHT22;16639;51.488;0.152;2023-05-07T06:07:54;13.90;99.90
29731;DHT22;16639;51.488;0.152;2023-05-07T06:10:22;14.00;99.90
29731;DHT22;16639;51.488;0.152;2023-05-07T06:12:51;13.90;99.90
29731;DHT22;16639;51.488;0.152;2023-05-07T06:15:18;14.00;99.90
29731;DHT22;16639;51.488;0.152;2023-05-07T06:17:46;14.00;99.90
29731;DHT22;16639;51.488;0.152;2023-05-07T06:20:13;14.00;99.90
29731;DHT22;16639;51.488;0.152;2023-05-07T06:22:41;14.00;99.90
29731;DHT22;16639;51.488;0.152;2023-05-07T06:25:08;14.00;99.90
29731;DHT22;16639;51.488;0.152;2023-05-07T06:27:36;14.00;99.90
29731;DHT22;16639;51.488;0.152;2023-05-07T06:30:04;14.00;99.90
29731;DHT22;16639;51.488;0.152;2023-05-07T06:32:32;14.10;99.90
29731;DHT22;16639;51.488;0.152;2023-05-07T06:34:59;14.10;99.90
29731;DHT22;16639;51.488;0.152;2023-05-07T06:37:27;14.10;99.90
29731;DHT22;16639;51.488;0.152;2023-05-07T06:39:54;14.10;99.90
29731;DHT22;16639;51.488;0.152;2023-05-07T06:42:25;14.00;99.90
29731;DHT22;16639;51.488;0.152;2023-05-07T06:44:53;14.10;99.90
29731;DHT22;16639;51.488;0.152;2023-05-07T06:47:23;14.10;99.90
29731;DHT22;16639;51.488;0.152;2023-05-07T06:49:51;14.10;99.90
29731;DHT22;16639;51.488;0.152;2023-05-07T06:52:18;14.20;99.90
29731;DHT22;16639;51.488;0.152;2023-05-07T06:54:46;14.30;99.90
29731;DHT22;16639;51.488;0.152;2023-05-07T06:57:13;14.30;99.90
29731;DHT22;16639;51.488;0.152;2023-05-07T06:59:41;14.30;99.90
29731;DHT22;16639;51.488;0.152;2023-05-07T07:02:08;14.40;99.90
29731;DHT22;16639;51.488;0.152;2023-05-07T07:04:36;14.10;99.90
29731;DHT22;16639;51.488;0.152;2023-05-07T07:07:03;14.50;99.90
29731;DHT22;16639;51.488;0.152;2023-05-07T07:09:31;14.50;99.90
29731;DHT22;16639;51.488;0.152;2023-05-07T07:11:58;14.50;99.90
29731;DHT22;16639;51.488;0.152;2023-05-07T07:14:26;14.50;99.90
29731;DHT22;16639;51.488;0.152;2023-05-07T07:16:53;15.80;99.90
29731;DHT22;16639;51.488;0.152;2023-05-07T07:19:21;14.50;99.90
29731;DHT22;16639;51.488;0.152;2023-05-07T07:21:48;14.20;99.90
29731;DHT22;16639;51.488;0.152;2023-05-07T07:24:16;14.50;99.90
29731;DHT22;16639;51.488;0.152;2023-05-07T07:26:48;14.60;99.90
29731;DHT22;16639;51.488;0.152;2023-05-07T07:29:15;14.60;99.90
29731;DHT22;16639;51.488;0.152;2023-05-07T07:31:43;14.60;99.90
29731;DHT22;16639;51.488;0.152;2023-05-07T07:34:10;14.70;99.90
29731;DHT22;16639;51.488;0.152;2023-05-07T07:36:38;14.70;99.90
29731;DHT22;16639;51.488;0.152;2023-05-07T07:39:12;14.70;99.90
29731;DHT22;16639;51.488;0.152;2023-05-07T07:41:40;14.70;99.90
29731;DHT22;16639;51.488;0.152;2023-05-07T07:44:07;14.70;99.90
29731;DHT22;16639;51.488;0.152;2023-05-07T07:46:37;14.60;99.90
29731;DHT22;16639;51.488;0.152;2023-05-07T07:49:04;14.90;99.90
29731;DHT22;16639;51.488;0.152;2023-05-07T07:51:32;14.60;99.90
29731;DHT22;16639;51.488;0.152;2023-05-07T07:53:59;14.60;99.90
29731;DHT22;16639;51.488;0.152;2023-05-07T07:56:28;14.60;99.90
29731;DHT22;16639;51.488;0.152;2023-05-07T07:58:55;14.60;99.90
29731;DHT22;16639;51.488;0.152;2023-05-07T08:01:22;14.60;99.90
29731;DHT22;16639;51.488;0.152;2023-05-07T08:03:50;14.60;99.90
29731;DHT22;16639;51.488;0.152;2023-05-07T08:06:18;14.60;99.90
29731;DHT22;16639;51.488;0.152;2023-05-07T08:08:45;14.60;99.90
29731;DHT22;16639;51.488;0.152;2023-05-07T08:11:13;14.60;99.90
29731;DHT22;16639;51.488;0.152;2023-05-07T08:13:40;14.70;99.90
29731;DHT22;16639;51.488;0.152;2023-05-07T08:16:07;14.70;99.90
29731;DHT22;16639;51.488;0.152;2023-05-07T08:18:35;14.90;99.90
29731;DHT22;16639;51.488;0.152;2023-05-07T08:21:02;14.90;99.90
29731;DHT22;16639;51.488;0.152;2023-05-07T08:23:30;15.00;99.90
29731;DHT22;16639;51.488;0.152;2023-05-07T08:25:57;15.10;99.90
29731;DHT22;16639;51.488;0.152;2023-05-07T08:28:25;15.10;99.90
29731;DHT22;16639;51.488;0.152;2023-05-07T08:30:52;15.10;99.90
29731;DHT22;16639;51.488;0.152;2023-05-07T08:33:20;15.10;99.90
29731;DHT22;16639;51.488;0.152;2023-05-07T08:35:48;15.20;99.90
29731;DHT22;16639;51.488;0.152;2023-05-07T08:38:15;15.20;99.90
29731;DHT22;16639;51.488;0.152;2023-05-07T08:40:43;15.40;99.90
29731;DHT22;16639;51.488;0.152;2023-05-07T08:43:13;15.50;99.90
29731;DHT22;16639;51.488;0.152;2023-05-07T08:45:41;15.60;99.90
29731;DHT22;16639;51.488;0.152;2023-05-07T08:48:15;15.60;99.90
29731;DHT22;16639;51.488;0.152;2023-05-07T08:50:43;15.60;99.90
29731;DHT22;16639;51.488;0.152;2023-05-07T08:53:10;15.50;99.90
29731;DHT22;16639;51.488;0.152;2023-05-07T08:55:39;15.50;99.90
29731;DHT22;16639;51.488;0.152;2023-05-07T08:58:07;15.50;99.90
29731;DHT22;16639;51.488;0.152;2023-05-07T09:00:36;15.40;99.90
29731;DHT22;16639;51.488;0.152;2023-05-07T09:03:04;15.40;99.90
29731;DHT22;16639;51.488;0.152;2023-05-07T09:05:32;15.50;99.90
29731;DHT22;16639;51.488;0.152;2023-05-07T09:08:02;15.60;99.90
29731;DHT22;16639;51.488;0.152;2023-05-07T09:10:30;15.80;99.90
29731;DHT22;16639;51.488;0.152;2023-05-07T09:12:59;15.90;99.90
29731;DHT22;16639;51.488;0.152;2023-05-07T09:15:28;16.00;99.90
29731;DHT22;16639;51.488;0.152;2023-05-07T09:17:59;16.20;99.90
29731;DHT22;16639;51.488;0.152;2023-05-07T09:20:30;16.00;99.90
29731;DHT22;16639;51.488;0.152;2023-05-07T09:22:58;16.30;99.90
29731;DHT22;16639;51.488;0.152;2023-05-07T09:25:30;16.30;99.90
29731;DHT22;16639;51.488;0.152;2023-05-07T09:27:59;16.20;99.90
29731;DHT22;16639;51.488;0.152;2023-05-07T09:30:31;16.20;99.90
29731;DHT22;16639;51.488;0.152;2023-05-07T09:33:00;16.20;99.90
29731;DHT22;16639;51.488;0.152;2023-05-07T09:35:28;16.00;99.90
29731;DHT22;16639;51.488;0.152;2023-05-07T09:37:58;16.00;99.90
29731;DHT22;16639;51.488;0.152;2023-05-07T09:40:30;16.00;99.90
29731;DHT22;16639;51.488;0.152;2023-05-07T09:43:13;16.10;99.90
29731;DHT22;16639;51.488;0.152;2023-05-07T09:45:41;16.10;99.90
29731;DHT22;16639;51.488;0.152;2023-05-07T09:48:08;16.10;99.90
29731;DHT22;16639;51.488;0.152;2023-05-07T09:50:48;16.20;99.90
29731;DHT22;16639;51.488;0.152;2023-05-07T09:53:17;16.30;99.90
29731;DHT22;16639;51.488;0.152;2023-05-07T09:55:45;16.40;99.90
29731;DHT22;16639;51.488;0.152;2023-05-07T09:58:14;16.50;99.90
29731;DHT22;16639;51.488;0.152;2023-05-07T10:00:42;16.50;99.90
29731;DHT22;16639;51.488;0.152;2023-05-07T10:03:10;16.60;99.90
29731;DHT22;16639;51.488;0.152;2023-05-07T10:05:39;16.70;99.90
29731;DHT22;16639;51.488;0.152;2023-05-07T10:08:06;16.80;99.90
29731;DHT22;16639;51.488;0.152;2023-05-07T10:10:35;16.80;99.90
29731;DHT22;16639;51.488;0.152;2023-05-07T10:13:03;16.70;99.90
29731;DHT22;16639;51.488;0.152;2023-05-07T10:15:34;17.00;99.90
29731;DHT22;16639;51.488;0.152;2023-05-07T10:18:03;17.00;99.90
29731;DHT22;16639;51.488;0.152;2023-05-07T10:20:32;17.00;99.90
29731;DHT22;16639;51.488;0.152;2023-05-07T10:23:04;17.00;99.90
29731;DHT22;16639;51.488;0.152;2023-05-07T10:25:33;17.10;99.90
29731;DHT22;16639;51.488;0.152;2023-05-07T10:28:10;17.10;99.90
29731;DHT22;16639;51.488;0.152;2023-05-07T10:33:29;17.20;99.90
29731;DHT22;16639;51.488;0.152;2023-05-07T10:35:59;17.20;99.90
29731;DHT22;16639;51.488;0.152;2023-05-07T10:38:29;17.30;99.90
29731;DHT22;16639;51.488;0.152;2023-05-07T10:40:57;17.40;99.90
29731;DHT22;16639;51.488;0.152;2023-05-07T10:43:24;17.40;99.90
29731;DHT22;16639;51.488;0.152;2023-05-07T10:46:19;17.50;99.90
29731;DHT22;16639;51.488;0.152;2023-05-07T10:51:35;17.70;99.90
29731;DHT22;16639;51.488;0.152;2023-05-07T10:56:37;17.80;99.90
29731;DHT22;16639;51.488;0.152;2023-05-07T10:59:31;17.70;99.90
29731;DHT22;16639;51.488;0.152;2023-05-07T11:02:00;17.80;99.90
29731;DHT22;16639;51.488;0.152;2023-05-07T11:04:33;17.80;99.90
29731;DHT22;16639;51.488;0.152;2023-05-07T11:15:12;17.90;99.90
29731;DHT22;16639;51.488;0.152;2023-05-07T11:17:54;17.90;99.90
29731;DHT22;16639;51.488;0.152;2023-05-07T11:26:04;18.10;99.90
29731;DHT22;16639;51.488;0.152;2023-05-07T11:28:41;18.10;99.90
29731;DHT22;16639;51.488;0.152;2023-05-07T11:31:10;18.10;99.90
29731;DHT22;16639;51.488;0.152;2023-05-07T11:33:38;18.10;99.90
29731;DHT22;16639;51.488;0.152;2023-05-07T11:36:08;18.20;99.90
29731;DHT22;16639;51.488;0.152;2023-05-07T11:38:36;18.20;99.90
29731;DHT22;16639;51.488;0.152;2023-05-07T11:41:04;18.00;99.90
29731;DHT22;16639;51.488;0.152;2023-05-07T11:43:32;17.70;99.90
29731;DHT22;16639;51.488;0.152;2023-05-07T11:46:11;18.10;99.90
29731;DHT22;16639;51.488;0.152;2023-05-07T11:48:39;18.10;99.90
29731;DHT22;16639;51.488;0.152;2023-05-07T11:51:08;18.20;99.90
29731;DHT22;16639;51.488;0.152;2023-05-07T11:53:41;18.20;99.90
29731;DHT22;16639;51.488;0.152;2023-05-07T11:56:13;18.20;99.90
29731;DHT22;16639;51.488;0.152;2023-05-07T11:58:41;18.20;99.90
29731;DHT22;16639;51.488;0.152;2023-05-07T12:01:10;18.30;99.90
29731;DHT22;16639;51.488;0.152;2023-05-07T12:03:43;18.30;99.90
29731;DHT22;16639;51.488;0.152;2023-05-07T12:06:16;18.30;99.90
29731;DHT22;16639;51.488;0.152;2023-05-07T12:08:45;18.30;99.90
29731;DHT22;16639;51.488;0.152;2023-05-07T12:11:16;18.20;99.90
29731;DHT22;16639;51.488;0.152;2023-05-07T12:13:45;18.20;99.90
29731;DHT22;16639;51.488;0.152;2023-05-07T12:16:13;18.10;99.90
29731;DHT22;16639;51.488;0.152;2023-05-07T12:18:41;18.00;99.90
29731;DHT22;16639;51.488;0.152;2023-05-07T12:21:09;18.00;99.90
29731;DHT22;16639;51.488;0.152;2023-05-07T12:23:37;17.90;99.90
29731;DHT22;16639;51.488;0.152;2023-05-07T12:26:05;17.90;99.90
29731;DHT22;16639;51.488;0.152;2023-05-07T12:28:38;17.80;99.90
29731;DHT22;16639;51.488;0.152;2023-05-07T12:31:07;17.80;99.90
29731;DHT22;16639;51.488;0.152;2023-05-07T12:33:35;17.90;99.90
29731;DHT22;16639;51.488;0.152;2023-05-07T12:36:05;18.00;99.90
29731;DHT22;16639;51.488;0.152;2023-05-07T12:38:39;18.10;99.90
29731;DHT22;16639;51.488;0.152;2023-05-07T12:41:09;18.20;99.90
29731;DHT22;16639;51.488;0.152;2023-05-07T12:43:37;18.30;99.90
29731;DHT22;16639;51.488;0.152;2023-05-07T12:46:06;18.30;99.90
29731;DHT22;16639;51.488;0.152;2023-05-07T12:48:37;18.20;99.90
29731;DHT22;16639;51.488;0.152;2023-05-07T12:51:05;18.20;99.90
29731;DHT22;16639;51.488;0.152;2023-05-07T12:53:33;18.10;99.90
29731;DHT22;16639;51.488;0.152;2023-05-07T12:56:06;18.10;99.90
29731;DHT22;16639;51.488;0.152;2023-05-07T12:58:35;18.10;99.90
29731;DHT22;16639;51.488;0.152;2023-05-07T13:01:07;18.20;99.90
29731;DHT22;16639;51.488;0.152;2023-05-07T13:03:37;18.10;99.90
29731;DHT22;16639;51.488;0.152;2023-05-07T13:06:08;18.10;99.90
29731;DHT22;16639;51.488;0.152;2023-05-07T13:08:41;18.00;99.90
29731;DHT22;16639;51.488;0.152;2023-05-07T13:11:12;18.00;99.90
29731;DHT22;16639;51.488;0.152;2023-05-07T13:13:40;18.00;99.90
29731;DHT22;16639;51.488;0.152;2023-05-07T13:16:10;18.00;99.90
29731;DHT22;16639;51.488;0.152;2023-05-07T13:18:39;17.90;99.90
29731;DHT22;16639;51.488;0.152;2023-05-07T13:21:07;17.80;99.90
29731;DHT22;16639;51.488;0.152;2023-05-07T13:23:35;17.80;99.90
29731;DHT22;16639;51.488;0.152;2023-05-07T13:26:02;17.90;99.90
29731;DHT22;16639;51.488;0.152;2023-05-07T13:28:37;17.90;99.90
29731;DHT22;16639;51.488;0.152;2023-05-07T13:31:05;18.00;99.90
29731;DHT22;16639;51.488;0.152;2023-05-07T13:33:32;18.00;99.90
29731;DHT22;16639;51.488;0.152;2023-05-07T13:36:00;18.00;99.90
29731;DHT22;16639;51.488;0.152;2023-05-07T13:38:27;18.00;99.90
29731;DHT22;16639;51.488;0.152;2023-05-07T13:40:55;18.00;99.90
29731;DHT22;16639;51.488;0.152;2023-05-07T13:43:23;18.10;99.90
29731;DHT22;16639;51.488;0.152;2023-05-07T13:45:50;18.10;99.90
29731;DHT22;16639;51.488;0.152;2023-05-07T13:48:17;18.20;99.90
29731;DHT22;16639;51.488;0.152;2023-05-07T13:50:45;18.20;99.90
29731;DHT22;16639;51.488;0.152;2023-05-07T13:53:12;18.20;99.90
29731;DHT22;16639;51.488;0.152;2023-05-07T13:55:40;18.20;99.90
29731;DHT22;16639;51.488;0.152;2023-05-07T13:58:07;18.20;99.90
29731;DHT22;16639;51.488;0.152;2023-05-07T14:00:35;18.20;99.90
29731;DHT22;16639;51.488;0.152;2023-05-07T14:03:04;18.30;99.90
29731;DHT22;16639;51.488;0.152;2023-05-07T14:05:31;18.30;99.90
29731;DHT22;16639;51.488;0.152;2023-05-07T14:07:59;18.40;99.90
29731;DHT22;16639;51.488;0.152;2023-05-07T14:10:27;18.50;99.90
29731;DHT22;16639;51.488;0.152;2023-05-07T14:12:54;18.60;99.90
29731;DHT22;16639;51.488;0.152;2023-05-07T14:15:22;18.50;99.90
29731;DHT22;16639;51.488;0.152;2023-05-07T14:17:49;18.50;99.90
29731;DHT22;16639;51.488;0.152;2023-05-07T14:20:16;18.40;99.90
29731;DHT22;16639;51.488;0.152;2023-05-07T14:22:44;18.50;99.90
29731;DHT22;16639;51.488;0.152;2023-05-07T14:25:12;18.40;99.90
29731;DHT22;16639;51.488;0.152;2023-05-07T14:27:40;18.40;99.90
29731;DHT22;16639;51.488;0.152;2023-05-07T14:30:08;18.40;99.90
29731;DHT22;16639;51.488;0.152;2023-05-07T14:32:35;18.40;99.90
29731;DHT22;16639;51.488;0.152;2023-05-07T14:35:04;18.40;99.90
29731;DHT22;16639;51.488;0.152;2023-05-07T14:37:31;18.40;99.90
29731;DHT22;16639;51.488;0.152;2023-05-07T14:39:59;18.40;99.90
29731;DHT22;16639;51.488;0.152;2023-05-07T14:42:27;18.40;99.90
29731;DHT22;16639;51.488;0.152;2023-05-07T14:44:54;18.40;99.90
29731;DHT22;16639;51.488;0.152;2023-05-07T14:47:23;18.40;99.90
29731;DHT22;16639;51.488;0.152;2023-05-07T14:49:50;18.30;99.90
29731;DHT22;16639;51.488;0.152;2023-05-07T14:52:18;18.40;99.90
29731;DHT22;16639;51.488;0.152;2023-05-07T14:54:46;18.40;99.90
29731;DHT22;16639;51.488;0.152;2023-05-07T14:57:14;18.40;99.90
29731;DHT22;16639;51.488;0.152;2023-05-07T14:59:43;18.40;99.90
29731;DHT22;16639;51.488;0.152;2023-05-07T15:02:11;18.40;99.90
29731;DHT22;16639;51.488;0.152;2023-05-07T15:04:42;18.50;99.90
29731;DHT22;16639;51.488;0.152;2023-05-07T15:07:13;18.40;99.90
29731;DHT22;16639;51.488;0.152;2023-05-07T15:09:43;18.50;99.90
29731;DHT22;16639;51.488;0.152;2023-05-07T15:12:11;18.50;99.90
29731;DHT22;16639;51.488;0.152;2023-05-07T15:14:39;18.40;99.90
29731;DHT22;16639;51.488;0.152;2023-05-07T15:17:07;18.40;99.90
29731;DHT22;16639;51.488;0.152;2023-05-07T15:19:34;18.50;99.90
29731;DHT22;16639;51.488;0.152;2023-05-07T15:22:02;18.50;99.90
29731;DHT22;16639;51.488;0.152;2023-05-07T15:24:30;18.50;99.90
29731;DHT22;16639;51.488;0.152;2023-05-07T15:26:58;18.50;99.90
29731;DHT22;16639;51.488;0.152;2023-05-07T15:29:25;18.50;99.90
29731;DHT22;16639;51.488;0.152;2023-05-07T15:31:52;18.50;99.90
29731;DHT22;16639;51.488;0.152;2023-05-07T15:34:21;18.50;99.90
29731;DHT22;16639;51.488;0.152;2023-05-07T15:36:49;18.50;99.90
29731;DHT22;16639;51.488;0.152;2023-05-07T15:39:17;18.50;99.90
29731;DHT22;16639;51.488;0.152;2023-05-07T15:41:44;18.50;99.90
29731;DHT22;16639;51.488;0.152;2023-05-07T15:44:12;18.50;99.90
29731;DHT22;16639;51.488;0.152;2023-05-07T15:46:39;18.60;99.90
29731;DHT22;16639;51.488;0.152;2023-05-07T15:49:07;18.70;99.90
29731;DHT22;16639;51.488;0.152;2023-05-07T15:51:35;18.60;99.90
29731;DHT22;16639;51.488;0.152;2023-05-07T15:54:03;18.70;99.90
29731;DHT22;16639;51.488;0.152;2023-05-07T15:56:30;18.60;99.90
29731;DHT22;16639;51.488;0.152;2023-05-07T15:59:01;18.70;99.90